sensor_id;sensor_type;location;lat;lon;timestamp;P1;durP1;ratioP1;P2;durP2;ratioP2
3259;SDS011;68938;48.150;14.004;2023-12-22T00:01:08;1.07;;;0.97;;
3259;SDS011;68938;48.150;14.004;2023-12-22T00:03:35;1.50;;;1.40;;
3259;SDS011;68938;48.150;14.004;2023-12-22T00:06:02;1.37;;;1.00;;
3259;SDS011;68938;48.150;14.004;2023-12-22T00:08:29;0.80;;;0.80;;
3259;SDS011;68938;48.150;14.004;2023-12-22T00:10:56;1.60;;;0.80;;
3259;SDS011;68938;48.150;14.004;2023-12-22T00:13:23;2.40;;;1.00;;
3259;SDS011;68938;48.150;14.004;2023-12-22T00:15:50;1.27;;;1.27;;
3259;SDS011;68938;48.150;14.004;2023-12-22T00:18:17;0.80;;;0.80;;
3259;SDS011;68938;48.150;14.004;2023-12-22T00:20:44;2.70;;;0.83;;
3259;SDS011;68938;48.150;14.004;2023-12-22T00:23:11;0.80;;;0.80;;
3259;SDS011;68938;48.150;14.004;2023-12-22T00:25:38;0.80;;;0.80;;
3259;SDS011;68938;48.150;14.004;2023-12-22T00:28:05;0.83;;;0.83;;
3259;SDS011;68938;48.150;14.004;2023-12-22T00:30:31;1.53;;;1.00;;
3259;SDS011;68938;48.150;14.004;2023-12-22T00:32:58;0.90;;;0.90;;
3259;SDS011;68938;48.150;14.004;2023-12-22T00:35:25;0.80;;;0.80;;
3259;SDS011;68938;48.150;14.004;2023-12-22T00:37:52;0.87;;;0.87;;
3259;SDS011;68938;48.150;14.004;2023-12-22T00:40:19;1.00;;;1.00;;
3259;SDS011;68938;48.150;14.004;2023-12-22T00:42:46;1.80;;;0.97;;
3259;SDS011;68938;48.150;14.004;2023-12-22T00:45:13;1.00;;;1.00;;
3259;SDS011;68938;48.150;14.004;2023-12-22T00:47:40;1.40;;;0.90;;
3259;SDS011;68938;48.150;14.004;2023-12-22T00:50:07;1.80;;;0.90;;
3259;SDS011;68938;48.150;14.004;2023-12-22T00:52:34;1.27;;;1.03;;
3259;SDS011;68938;48.150;14.004;2023-12-22T00:55:01;1.00;;;1.00;;
3259;SDS011;68938;48.150;14.004;2023-12-22T00:57:28;0.80;;;0.80;;
3259;SDS011;68938;48.150;14.004;2023-12-22T00:59:55;1.33;;;1.00;;
3259;SDS011;68938;48.150;14.004;2023-12-22T01:02:22;1.00;;;1.00;;
3259;SDS011;68938;48.150;14.004;2023-12-22T01:04:48;1.00;;;1.00;;
3259;SDS011;68938;48.150;14.004;2023-12-22T01:07:15;1.20;;;1.10;;
3259;SDS011;68938;48.150;14.004;2023-12-22T01:09:42;1.10;;;1.10;;
3259;SDS011;68938;48.150;14.004;2023-12-22T01:12:09;0.90;;;0.90;;
3259;SDS011;68938;48.150;14.004;2023-12-22T01:14:36;0.87;;;0.87;;
3259;SDS011;68938;48.150;14.004;2023-12-22T01:17:03;0.80;;;0.80;;
3259;SDS011;68938;48.150;14.004;2023-12-22T01:19:30;3.17;;;0.90;;
3259;SDS011;68938;48.150;14.004;2023-12-22T01:21:57;0.83;;;0.80;;
3259;SDS011;68938;48.150;14.004;2023-12-22T01:24:24;0.90;;;0.90;;
3259;SDS011;68938;48.150;14.004;2023-12-22T01:26:51;2.07;;;1.10;;
3259;SDS011;68938;48.150;14.004;2023-12-22T01:29:17;0.80;;;0.80;;
3259;SDS011;68938;48.150;14.004;2023-12-22T01:31:44;1.40;;;1.30;;
3259;SDS011;68938;48.150;14.004;2023-12-22T01:34:11;0.70;;;0.70;;
3259;SDS011;68938;48.150;14.004;2023-12-22T01:36:38;0.73;;;0.73;;
3259;SDS011;68938;48.150;14.004;2023-12-22T01:39:05;1.33;;;1.23;;
3259;SDS011;68938;48.150;14.004;2023-12-22T01:41:35;3.90;;;1.30;;
3259;SDS011;68938;48.150;14.004;2023-12-22T01:44:01;1.90;;;1.20;;
3259;SDS011;68938;48.150;14.004;2023-12-22T01:46:28;1.00;;;0.90;;
3259;SDS011;68938;48.150;14.004;2023-12-22T01:48:55;1.00;;;0.90;;
3259;SDS011;68938;48.150;14.004;2023-12-22T01:51:22;1.40;;;1.30;;
3259;SDS011;68938;48.150;14.004;2023-12-22T01:53:49;1.00;;;1.00;;
3259;SDS011;68938;48.150;14.004;2023-12-22T01:56:16;1.70;;;0.93;;
3259;SDS011;68938;48.150;14.004;2023-12-22T01:58:43;0.90;;;0.90;;
3259;SDS011;68938;48.150;14.004;2023-12-22T02:01:11;1.30;;;1.20;;
3259;SDS011;68938;48.150;14.004;2023-12-22T02:03:38;2.40;;;1.37;;
3259;SDS011;68938;48.150;14.004;2023-12-22T02:06:05;1.20;;;1.10;;
3259;SDS011;68938;48.150;14.004;2023-12-22T02:08:32;1.00;;;1.00;;
3259;SDS011;68938;48.150;14.004;2023-12-22T02:11:00;2.67;;;1.07;;
3259;SDS011;68938;48.150;14.004;2023-12-22T02:13:28;1.60;;;1.20;;
3259;SDS011;68938;48.150;14.004;2023-12-22T02:15:56;1.40;;;0.90;;
3259;SDS011;68938;48.150;14.004;2023-12-22T02:18:35;0.63;;;0.63;;
3259;SDS011;68938;48.150;14.004;2023-12-22T02:21:05;1.30;;;0.93;;
3259;SDS011;68938;48.150;14.004;2023-12-22T02:23:32;1.67;;;1.53;;
3259;SDS011;68938;48.150;14.004;2023-12-22T02:26:06;0.90;;;0.90;;
3259;SDS011;68938;48.150;14.004;2023-12-22T02:28:39;2.40;;;1.17;;
3259;SDS011;68938;48.150;14.004;2023-12-22T02:31:09;1.50;;;0.90;;
3259;SDS011;68938;48.150;14.004;2023-12-22T02:33:49;4.77;;;1.30;;
3259;SDS011;68938;48.150;14.004;2023-12-22T02:36:19;1.27;;;1.10;;
3259;SDS011;68938;48.150;14.004;2023-12-22T02:38:48;1.80;;;1.20;;
3259;SDS011;68938;48.150;14.004;2023-12-22T02:41:18;1.23;;;1.00;;
3259;SDS011;68938;48.150;14.004;2023-12-22T02:43:45;1.90;;;1.07;;
3259;SDS011;68938;48.150;14.004;2023-12-22T02:46:16;1.20;;;1.20;;
3259;SDS011;68938;48.150;14.004;2023-12-22T02:48:43;0.93;;;0.93;;
3259;SDS011;68938;48.150;14.004;2023-12-22T02:51:10;0.97;;;0.97;;
3259;SDS011;68938;48.150;14.004;2023-12-22T02:53:37;2.20;;;1.27;;
3259;SDS011;68938;48.150;14.004;2023-12-22T02:56:04;1.13;;;1.13;;
3259;SDS011;68938;48.150;14.004;2023-12-22T02:58:31;1.37;;;1.00;;
3259;SDS011;68938;48.150;14.004;2023-12-22T03:00:58;3.40;;;1.53;;
3259;SDS011;68938;48.150;14.004;2023-12-22T03:03:25;0.80;;;0.80;;
3259;SDS011;68938;48.150;14.004;2023-12-22T03:05:52;1.33;;;1.23;;
3259;SDS011;68938;48.150;14.004;2023-12-22T03:08:19;1.03;;;0.93;;
3259;SDS011;68938;48.150;14.004;2023-12-22T03:10:46;5.20;;;1.27;;
3259;SDS011;68938;48.150;14.004;2023-12-22T03:13:13;1.67;;;1.30;;
3259;SDS011;68938;48.150;14.004;2023-12-22T03:15:40;3.60;;;1.60;;
3259;SDS011;68938;48.150;14.004;2023-12-22T03:18:06;1.03;;;1.03;;
3259;SDS011;68938;48.150;14.004;2023-12-22T03:20:34;4.90;;;1.50;;
3259;SDS011;68938;48.150;14.004;2023-12-22T03:23:00;1.43;;;1.33;;
3259;SDS011;68938;48.150;14.004;2023-12-22T03:25:27;1.50;;;1.40;;
3259;SDS011;68938;48.150;14.004;2023-12-22T03:27:54;2.00;;;1.20;;
3259;SDS011;68938;48.150;14.004;2023-12-22T03:30:21;3.00;;;1.53;;
3259;SDS011;68938;48.150;14.004;2023-12-22T03:32:48;2.40;;;1.30;;
3259;SDS011;68938;48.150;14.004;2023-12-22T03:35:15;2.30;;;1.30;;
3259;SDS011;68938;48.150;14.004;2023-12-22T03:37:42;2.63;;;2.33;;
3259;SDS011;68938;48.150;14.004;2023-12-22T03:40:08;1.90;;;1.37;;
3259;SDS011;68938;48.150;14.004;2023-12-22T03:42:36;1.83;;;1.50;;
3259;SDS011;68938;48.150;14.004;2023-12-22T03:45:03;1.83;;;1.20;;
3259;SDS011;68938;48.150;14.004;2023-12-22T03:47:30;9.40;;;1.33;;
3259;SDS011;68938;48.150;14.004;2023-12-22T03:49:57;2.80;;;1.10;;
3259;SDS011;68938;48.150;14.004;2023-12-22T03:52:24;1.27;;;0.90;;
3259;SDS011;68938;48.150;14.004;2023-12-22T03:54:51;1.13;;;1.13;;
3259;SDS011;68938;48.150;14.004;2023-12-22T03:57:18;1.80;;;1.03;;
3259;SDS011;68938;48.150;14.004;2023-12-22T03:59:45;3.03;;;1.53;;
3259;SDS011;68938;48.150;14.004;2023-12-22T04:02:11;2.43;;;2.00;;
3259;SDS011;68938;48.150;14.004;2023-12-22T04:04:38;2.33;;;1.23;;
3259;SDS011;68938;48.150;14.004;2023-12-22T04:07:06;1.90;;;1.73;;
3259;SDS011;68938;48.150;14.004;2023-12-22T04:09:33;2.23;;;1.70;;
3259;SDS011;68938;48.150;14.004;2023-12-22T04:12:00;3.63;;;1.80;;
3259;SDS011;68938;48.150;14.004;2023-12-22T04:14:27;8.33;;;1.83;;
3259;SDS011;68938;48.150;14.004;2023-12-22T04:16:53;4.00;;;2.10;;
3259;SDS011;68938;48.150;14.004;2023-12-22T04:19:21;10.90;;;1.53;;
3259;SDS011;68938;48.150;14.004;2023-12-22T04:21:48;2.10;;;1.90;;
3259;SDS011;68938;48.150;14.004;2023-12-22T04:24:15;6.67;;;1.67;;
3259;SDS011;68938;48.150;14.004;2023-12-22T04:26:42;5.30;;;2.40;;
3259;SDS011;68938;48.150;14.004;2023-12-22T04:29:09;2.97;;;1.30;;
3259;SDS011;68938;48.150;14.004;2023-12-22T04:31:35;8.37;;;1.97;;
3259;SDS011;68938;48.150;14.004;2023-12-22T04:34:02;5.17;;;2.53;;
3259;SDS011;68938;48.150;14.004;2023-12-22T04:36:29;3.40;;;2.60;;
3259;SDS011;68938;48.150;14.004;2023-12-22T04:38:56;2.00;;;1.47;;
3259;SDS011;68938;48.150;14.004;2023-12-22T04:41:23;1.67;;;1.40;;
3259;SDS011;68938;48.150;14.004;2023-12-22T04:43:50;1.63;;;1.23;;
3259;SDS011;68938;48.150;14.004;2023-12-22T04:46:17;1.30;;;1.20;;
3259;SDS011;68938;48.150;14.004;2023-12-22T04:48:44;1.33;;;0.90;;
3259;SDS011;68938;48.150;14.004;2023-12-22T04:51:11;1.47;;;1.37;;
3259;SDS011;68938;48.150;14.004;2023-12-22T04:53:37;2.60;;;1.50;;
3259;SDS011;68938;48.150;14.004;2023-12-22T04:56:05;1.70;;;1.50;;
3259;SDS011;68938;48.150;14.004;2023-12-22T04:58:32;1.53;;;1.17;;
3259;SDS011;68938;48.150;14.004;2023-12-22T05:00:59;1.73;;;1.37;;
3259;SDS011;68938;48.150;14.004;2023-12-22T05:03:26;1.27;;;1.27;;
3259;SDS011;68938;48.150;14.004;2023-12-22T05:05:53;2.73;;;1.60;;
3259;SDS011;68938;48.150;14.004;2023-12-22T05:08:20;1.60;;;1.50;;
3259;SDS011;68938;48.150;14.004;2023-12-22T05:10:47;2.33;;;1.47;;
3259;SDS011;68938;48.150;14.004;2023-12-22T05:13:13;3.33;;;1.30;;
3259;SDS011;68938;48.150;14.004;2023-12-22T05:15:40;3.33;;;0.93;;
3259;SDS011;68938;48.150;14.004;2023-12-22T05:18:07;1.40;;;1.40;;
3259;SDS011;68938;48.150;14.004;2023-12-22T05:20:35;2.93;;;1.07;;
3259;SDS011;68938;48.150;14.004;2023-12-22T05:23:01;1.70;;;1.60;;
3259;SDS011;68938;48.150;14.004;2023-12-22T05:25:28;2.30;;;1.03;;
3259;SDS011;68938;48.150;14.004;2023-12-22T05:27:55;1.30;;;1.20;;
3259;SDS011;68938;48.150;14.004;2023-12-22T05:30:23;1.00;;;0.90;;
3259;SDS011;68938;48.150;14.004;2023-12-22T05:32:50;1.20;;;1.10;;
3259;SDS011;68938;48.150;14.004;2023-12-22T05:35:17;1.13;;;1.13;;
3259;SDS011;68938;48.150;14.004;2023-12-22T05:37:44;0.90;;;0.90;;
3259;SDS011;68938;48.150;14.004;2023-12-22T05:40:11;1.17;;;0.80;;
3259;SDS011;68938;48.150;14.004;2023-12-22T05:42:38;1.30;;;0.90;;
3259;SDS011;68938;48.150;14.004;2023-12-22T05:45:05;0.80;;;0.80;;
3259;SDS011;68938;48.150;14.004;2023-12-22T05:47:33;1.00;;;1.00;;
3259;SDS011;68938;48.150;14.004;2023-12-22T05:50:00;1.27;;;0.90;;
3259;SDS011;68938;48.150;14.004;2023-12-22T05:52:28;1.27;;;1.17;;
3259;SDS011;68938;48.150;14.004;2023-12-22T05:54:55;1.00;;;0.90;;
3259;SDS011;68938;48.150;14.004;2023-12-22T05:57:21;1.10;;;1.00;;
3259;SDS011;68938;48.150;14.004;2023-12-22T05:59:48;0.93;;;0.83;;
3259;SDS011;68938;48.150;14.004;2023-12-22T06:02:15;2.00;;;1.00;;
3259;SDS011;68938;48.150;14.004;2023-12-22T06:04:42;0.80;;;0.80;;
3259;SDS011;68938;48.150;14.004;2023-12-22T06:07:10;1.10;;;1.07;;
3259;SDS011;68938;48.150;14.004;2023-12-22T06:09:37;1.23;;;1.10;;
3259;SDS011;68938;48.150;14.004;2023-12-22T06:12:04;1.87;;;1.10;;
3259;SDS011;68938;48.150;14.004;2023-12-22T06:14:31;1.00;;;1.00;;
3259;SDS011;68938;48.150;14.004;2023-12-22T06:16:58;1.10;;;1.10;;
3259;SDS011;68938;48.150;14.004;2023-12-22T06:19:25;1.83;;;1.33;;
3259;SDS011;68938;48.150;14.004;2023-12-22T06:21:52;1.13;;;1.13;;
3259;SDS011;68938;48.150;14.004;2023-12-22T06:24:19;1.70;;;1.50;;
3259;SDS011;68938;48.150;14.004;2023-12-22T06:26:46;1.47;;;1.37;;
3259;SDS011;68938;48.150;14.004;2023-12-22T06:29:13;5.23;;;4.83;;
3259;SDS011;68938;48.150;14.004;2023-12-22T06:31:40;2.80;;;2.57;;
3259;SDS011;68938;48.150;14.004;2023-12-22T06:34:08;1.20;;;1.20;;
3259;SDS011;68938;48.150;14.004;2023-12-22T06:36:35;1.90;;;1.33;;
3259;SDS011;68938;48.150;14.004;2023-12-22T06:39:01;1.10;;;1.10;;
3259;SDS011;68938;48.150;14.004;2023-12-22T06:41:29;0.90;;;0.90;;
3259;SDS011;68938;48.150;14.004;2023-12-22T06:43:57;1.30;;;1.30;;
3259;SDS011;68938;48.150;14.004;2023-12-22T06:46:24;1.17;;;1.17;;
3259;SDS011;68938;48.150;14.004;2023-12-22T06:48:53;0.93;;;0.93;;
3259;SDS011;68938;48.150;14.004;2023-12-22T06:51:23;0.93;;;0.93;;
3259;SDS011;68938;48.150;14.004;2023-12-22T06:53:55;0.83;;;0.83;;
3259;SDS011;68938;48.150;14.004;2023-12-22T06:56:26;0.90;;;0.90;;
3259;SDS011;68938;48.150;14.004;2023-12-22T06:58:55;1.00;;;1.00;;
3259;SDS011;68938;48.150;14.004;2023-12-22T07:01:31;1.00;;;1.00;;
3259;SDS011;68938;48.150;14.004;2023-12-22T07:04:01;1.10;;;1.10;;
3259;SDS011;68938;48.150;14.004;2023-12-22T07:06:30;1.33;;;1.13;;
3259;SDS011;68938;48.150;14.004;2023-12-22T07:11:38;2.70;;;1.10;;
3259;SDS011;68938;48.150;14.004;2023-12-22T07:14:17;1.40;;;1.27;;
3259;SDS011;68938;48.150;14.004;2023-12-22T07:16:44;1.07;;;0.97;;
3259;SDS011;68938;48.150;14.004;2023-12-22T07:19:11;1.10;;;1.10;;
3259;SDS011;68938;48.150;14.004;2023-12-22T07:21:38;1.60;;;1.50;;
3259;SDS011;68938;48.150;14.004;2023-12-22T07:24:07;0.90;;;0.90;;
3259;SDS011;68938;48.150;14.004;2023-12-22T07:26:34;2.63;;;1.00;;
3259;SDS011;68938;48.150;14.004;2023-12-22T07:29:02;1.50;;;1.40;;
3259;SDS011;68938;48.150;14.004;2023-12-22T07:31:29;1.10;;;1.10;;
3259;SDS011;68938;48.150;14.004;2023-12-22T07:33:56;1.40;;;1.30;;
3259;SDS011;68938;48.150;14.004;2023-12-22T07:36:23;1.00;;;1.00;;
3259;SDS011;68938;48.150;14.004;2023-12-22T07:38:50;1.00;;;1.00;;
3259;SDS011;68938;48.150;14.004;2023-12-22T07:41:16;1.23;;;1.23;;
3259;SDS011;68938;48.150;14.004;2023-12-22T07:43:45;1.50;;;1.40;;
3259;SDS011;68938;48.150;14.004;2023-12-22T07:46:16;1.20;;;1.20;;
3259;SDS011;68938;48.150;14.004;2023-12-22T07:48:45;2.43;;;1.13;;
3259;SDS011;68938;48.150;14.004;2023-12-22T07:51:12;2.20;;;2.00;;
3259;SDS011;68938;48.150;14.004;2023-12-22T07:53:39;1.77;;;1.60;;
3259;SDS011;68938;48.150;14.004;2023-12-22T07:56:06;2.03;;;1.20;;
3259;SDS011;68938;48.150;14.004;2023-12-22T07:58:34;1.93;;;1.40;;
3259;SDS011;68938;48.150;14.004;2023-12-22T08:01:01;1.63;;;1.53;;
3259;SDS011;68938;48.150;14.004;2023-12-22T08:03:29;2.33;;;1.60;;
3259;SDS011;68938;48.150;14.004;2023-12-22T08:05:56;1.87;;;1.80;;
3259;SDS011;68938;48.150;14.004;2023-12-22T08:08:23;1.10;;;1.10;;
3259;SDS011;68938;48.150;14.004;2023-12-22T08:10:50;1.20;;;1.13;;
3259;SDS011;68938;48.150;14.004;2023-12-22T08:13:16;3.90;;;1.47;;
3259;SDS011;68938;48.150;14.004;2023-12-22T08:15:43;1.73;;;1.50;;
3259;SDS011;68938;48.150;14.004;2023-12-22T08:18:10;2.17;;;2.00;;
3259;SDS011;68938;48.150;14.004;2023-12-22T08:20:37;1.63;;;1.53;;
3259;SDS011;68938;48.150;14.004;2023-12-22T08:23:09;2.50;;;2.40;;
3259;SDS011;68938;48.150;14.004;2023-12-22T08:25:38;1.47;;;1.40;;
3259;SDS011;68938;48.150;14.004;2023-12-22T08:28:05;1.00;;;1.00;;
3259;SDS011;68938;48.150;14.004;2023-12-22T08:30:32;1.10;;;1.03;;
3259;SDS011;68938;48.150;14.004;2023-12-22T08:32:59;1.43;;;1.40;;
3259;SDS011;68938;48.150;14.004;2023-12-22T08:35:26;1.30;;;1.30;;
3259;SDS011;68938;48.150;14.004;2023-12-22T08:37:53;1.50;;;1.40;;
3259;SDS011;68938;48.150;14.004;2023-12-22T08:40:20;1.80;;;1.07;;
3259;SDS011;68938;48.150;14.004;2023-12-22T08:42:47;1.00;;;1.00;;
3259;SDS011;68938;48.150;14.004;2023-12-22T08:45:14;1.83;;;1.40;;
3259;SDS011;68938;48.150;14.004;2023-12-22T08:47:41;1.23;;;1.23;;
3259;SDS011;68938;48.150;14.004;2023-12-22T08:50:08;3.43;;;1.77;;
3259;SDS011;68938;48.150;14.004;2023-12-22T08:52:35;0.93;;;0.93;;
3259;SDS011;68938;48.150;14.004;2023-12-22T08:55:02;2.00;;;1.17;;
3259;SDS011;68938;48.150;14.004;2023-12-22T08:57:29;1.30;;;1.20;;
3259;SDS011;68938;48.150;14.004;2023-12-22T08:59:56;1.30;;;1.20;;
3259;SDS011;68938;48.150;14.004;2023-12-22T09:02:23;2.60;;;1.23;;
3259;SDS011;68938;48.150;14.004;2023-12-22T09:04:50;1.10;;;1.10;;
3259;SDS011;68938;48.150;14.004;2023-12-22T09:07:17;1.10;;;1.00;;
3259;SDS011;68938;48.150;14.004;2023-12-22T09:09:43;1.47;;;1.37;;
3259;SDS011;68938;48.150;14.004;2023-12-22T09:12:10;1.73;;;1.57;;
3259;SDS011;68938;48.150;14.004;2023-12-22T09:14:37;1.30;;;1.30;;
3259;SDS011;68938;48.150;14.004;2023-12-22T09:17:04;1.00;;;1.00;;
3259;SDS011;68938;48.150;14.004;2023-12-22T09:19:34;1.90;;;1.20;;
3259;SDS011;68938;48.150;14.004;2023-12-22T09:22:01;1.27;;;1.20;;
3259;SDS011;68938;48.150;14.004;2023-12-22T09:24:27;1.50;;;1.50;;
3259;SDS011;68938;48.150;14.004;2023-12-22T09:26:54;1.30;;;1.30;;
3259;SDS011;68938;48.150;14.004;2023-12-22T09:29:21;1.10;;;1.10;;
3259;SDS011;68938;48.150;14.004;2023-12-22T09:31:48;2.87;;;1.60;;
3259;SDS011;68938;48.150;14.004;2023-12-22T09:34:15;1.07;;;0.97;;
3259;SDS011;68938;48.150;14.004;2023-12-22T09:36:42;1.10;;;1.10;;
3259;SDS011;68938;48.150;14.004;2023-12-22T09:39:09;1.70;;;1.60;;
3259;SDS011;68938;48.150;14.004;2023-12-22T09:41:35;1.07;;;1.07;;
3259;SDS011;68938;48.150;14.004;2023-12-22T09:44:02;1.10;;;1.00;;
3259;SDS011;68938;48.150;14.004;2023-12-22T09:46:32;1.63;;;1.20;;
3259;SDS011;68938;48.150;14.004;2023-12-22T09:49:01;1.23;;;1.23;;
3259;SDS011;68938;48.150;14.004;2023-12-22T09:51:29;0.90;;;0.90;;
3259;SDS011;68938;48.150;14.004;2023-12-22T09:53:57;1.83;;;1.50;;
3259;SDS011;68938;48.150;14.004;2023-12-22T09:56:29;0.90;;;0.90;;
3259;SDS011;68938;48.150;14.004;2023-12-22T09:58:57;0.90;;;0.90;;
3259;SDS011;68938;48.150;14.004;2023-12-22T10:01:25;1.83;;;1.73;;
3259;SDS011;68938;48.150;14.004;2023-12-22T10:03:54;1.20;;;1.10;;
3259;SDS011;68938;48.150;14.004;2023-12-22T10:06:21;1.27;;;1.10;;
3259;SDS011;68938;48.150;14.004;2023-12-22T10:08:48;1.13;;;1.13;;
3259;SDS011;68938;48.150;14.004;2023-12-22T10:11:16;4.43;;;1.40;;
3259;SDS011;68938;48.150;14.004;2023-12-22T10:13:45;1.37;;;1.10;;
3259;SDS011;68938;48.150;14.004;2023-12-22T10:16:12;1.10;;;1.00;;
3259;SDS011;68938;48.150;14.004;2023-12-22T10:18:39;1.50;;;1.40;;
3259;SDS011;68938;48.150;14.004;2023-12-22T10:21:06;2.50;;;1.93;;
3259;SDS011;68938;48.150;14.004;2023-12-22T10:23:33;3.03;;;1.27;;
3259;SDS011;68938;48.150;14.004;2023-12-22T10:26:00;1.33;;;1.20;;
3259;SDS011;68938;48.150;14.004;2023-12-22T10:28:27;1.40;;;1.30;;
3259;SDS011;68938;48.150;14.004;2023-12-22T10:30:54;0.90;;;0.90;;
3259;SDS011;68938;48.150;14.004;2023-12-22T10:33:22;1.00;;;1.00;;
3259;SDS011;68938;48.150;14.004;2023-12-22T10:35:49;1.90;;;0.90;;
3259;SDS011;68938;48.150;14.004;2023-12-22T10:38:18;1.23;;;1.00;;
3259;SDS011;68938;48.150;14.004;2023-12-22T10:40:46;1.07;;;1.00;;
3259;SDS011;68938;48.150;14.004;2023-12-22T10:43:12;2.10;;;1.13;;
3259;SDS011;68938;48.150;14.004;2023-12-22T10:45:40;1.43;;;1.40;;
3259;SDS011;68938;48.150;14.004;2023-12-22T10:48:07;1.43;;;1.27;;
3259;SDS011;68938;48.150;14.004;2023-12-22T10:50:34;0.90;;;0.90;;
3259;SDS011;68938;48.150;14.004;2023-12-22T10:53:01;1.23;;;1.07;;
3259;SDS011;68938;48.150;14.004;2023-12-22T10:55:34;2.73;;;1.27;;
3259;SDS011;68938;48.150;14.004;2023-12-22T10:58:02;1.30;;;1.30;;
3259;SDS011;68938;48.150;14.004;2023-12-22T11:00:30;1.47;;;1.20;;
3259;SDS011;68938;48.150;14.004;2023-12-22T11:03:03;2.20;;;1.40;;
3259;SDS011;68938;48.150;14.004;2023-12-22T11:05:34;1.10;;;1.10;;
3259;SDS011;68938;48.150;14.004;2023-12-22T11:08:03;2.30;;;1.80;;
3259;SDS011;68938;48.150;14.004;2023-12-22T11:10:40;1.33;;;1.20;;
3259;SDS011;68938;48.150;14.004;2023-12-22T11:13:09;1.40;;;1.30;;
3259;SDS011;68938;48.150;14.004;2023-12-22T11:15:39;1.10;;;1.00;;
3259;SDS011;68938;48.150;14.004;2023-12-22T11:18:07;1.40;;;1.30;;
3259;SDS011;68938;48.150;14.004;2023-12-22T11:20:35;1.63;;;1.53;;
3259;SDS011;68938;48.150;14.004;2023-12-22T11:23:03;1.10;;;1.10;;
3259;SDS011;68938;48.150;14.004;2023-12-22T11:25:32;2.37;;;1.43;;
3259;SDS011;68938;48.150;14.004;2023-12-22T11:28:01;1.20;;;1.10;;
3259;SDS011;68938;48.150;14.004;2023-12-22T11:30:30;2.20;;;1.17;;
3259;SDS011;68938;48.150;14.004;2023-12-22T11:32:58;1.27;;;0.93;;
3259;SDS011;68938;48.150;14.004;2023-12-22T11:35:26;1.47;;;0.83;;
3259;SDS011;68938;48.150;14.004;2023-12-22T11:37:59;2.00;;;1.60;;
3259;SDS011;68938;48.150;14.004;2023-12-22T11:40:27;4.53;;;1.30;;
3259;SDS011;68938;48.150;14.004;2023-12-22T11:42:55;8.83;;;1.73;;
3259;SDS011;68938;48.150;14.004;2023-12-22T11:45:23;1.10;;;1.00;;
3259;SDS011;68938;48.150;14.004;2023-12-22T11:47:50;1.10;;;1.07;;
3259;SDS011;68938;48.150;14.004;2023-12-22T11:50:30;2.40;;;1.37;;
3259;SDS011;68938;48.150;14.004;2023-12-22T11:52:57;2.83;;;1.30;;
3259;SDS011;68938;48.150;14.004;2023-12-22T11:58:36;1.60;;;1.40;;
3259;SDS011;68938;48.150;14.004;2023-12-22T12:03:52;2.50;;;1.57;;
3259;SDS011;68938;48.150;14.004;2023-12-22T12:08:53;1.20;;;1.10;;
3259;SDS011;68938;48.150;14.004;2023-12-22T12:12:08;2.87;;;1.57;;
3259;SDS011;68938;48.150;14.004;2023-12-22T12:14:25;1.60;;;1.60;;
3259;SDS011;68938;48.150;14.004;2023-12-22T12:17:00;1.20;;;1.20;;
3259;SDS011;68938;48.150;14.004;2023-12-22T12:19:42;1.00;;;1.00;;
3259;SDS011;68938;48.150;14.004;2023-12-22T12:22:13;2.60;;;1.80;;
3259;SDS011;68938;48.150;14.004;2023-12-22T12:24:41;3.57;;;2.43;;
3259;SDS011;68938;48.150;14.004;2023-12-22T12:27:08;5.73;;;2.47;;
3259;SDS011;68938;48.150;14.004;2023-12-22T12:29:35;4.20;;;2.10;;
3259;SDS011;68938;48.150;14.004;2023-12-22T12:32:02;2.90;;;2.70;;
3259;SDS011;68938;48.150;14.004;2023-12-22T12:34:33;1.50;;;1.40;;
3259;SDS011;68938;48.150;14.004;2023-12-22T12:37:00;2.50;;;1.90;;
3259;SDS011;68938;48.150;14.004;2023-12-22T12:39:29;6.63;;;1.97;;
3259;SDS011;68938;48.150;14.004;2023-12-22T12:41:57;4.57;;;2.53;;
3259;SDS011;68938;48.150;14.004;2023-12-22T12:44:26;1.90;;;1.80;;
3259;SDS011;68938;48.150;14.004;2023-12-22T12:46:54;4.20;;;2.07;;
3259;SDS011;68938;48.150;14.004;2023-12-22T12:49:21;1.30;;;1.20;;
3259;SDS011;68938;48.150;14.004;2023-12-22T12:51:48;3.23;;;1.63;;
3259;SDS011;68938;48.150;14.004;2023-12-22T12:54:16;2.47;;;1.33;;
3259;SDS011;68938;48.150;14.004;2023-12-22T12:56:46;2.07;;;1.50;;
3259;SDS011;68938;48.150;14.004;2023-12-22T12:59:14;1.43;;;1.10;;
3259;SDS011;68938;48.150;14.004;2023-12-22T13:01:43;1.20;;;0.90;;
3259;SDS011;68938;48.150;14.004;2023-12-22T13:04:13;1.00;;;1.00;;
3259;SDS011;68938;48.150;14.004;2023-12-22T13:06:44;1.47;;;1.37;;
3259;SDS011;68938;48.150;14.004;2023-12-22T13:09:16;1.13;;;1.10;;
3259;SDS011;68938;48.150;14.004;2023-12-22T13:11:45;1.03;;;1.00;;
3259;SDS011;68938;48.150;14.004;2023-12-22T13:14:22;0.87;;;0.87;;
3259;SDS011;68938;48.150;14.004;2023-12-22T13:16:50;1.70;;;1.60;;
3259;SDS011;68938;48.150;14.004;2023-12-22T13:19:18;1.37;;;1.20;;
3259;SDS011;68938;48.150;14.004;2023-12-22T13:21:45;1.23;;;1.13;;
3259;SDS011;68938;48.150;14.004;2023-12-22T13:24:13;1.43;;;1.33;;
3259;SDS011;68938;48.150;14.004;2023-12-22T13:26:42;1.53;;;1.43;;
3259;SDS011;68938;48.150;14.004;2023-12-22T13:29:11;0.90;;;0.90;;
3259;SDS011;68938;48.150;14.004;2023-12-22T13:31:40;1.20;;;1.20;;
3259;SDS011;68938;48.150;14.004;2023-12-22T13:34:11;2.87;;;1.03;;
3259;SDS011;68938;48.150;14.004;2023-12-22T13:36:39;1.27;;;1.27;;
3259;SDS011;68938;48.150;14.004;2023-12-22T13:39:08;2.40;;;1.50;;
3259;SDS011;68938;48.150;14.004;2023-12-22T13:41:40;1.40;;;1.40;;
3259;SDS011;68938;48.150;14.004;2023-12-22T13:44:10;3.10;;;1.93;;
3259;SDS011;68938;48.150;14.004;2023-12-22T13:46:40;1.70;;;1.60;;
3259;SDS011;68938;48.150;14.004;2023-12-22T13:49:08;1.30;;;1.30;;
3259;SDS011;68938;48.150;14.004;2023-12-22T13:51:39;3.23;;;1.57;;
3259;SDS011;68938;48.150;14.004;2023-12-22T13:54:10;1.30;;;1.20;;
3259;SDS011;68938;48.150;14.004;2023-12-22T13:56:38;1.57;;;1.57;;
3259;SDS011;68938;48.150;14.004;2023-12-22T13:59:05;1.63;;;1.57;;
3259;SDS011;68938;48.150;14.004;2023-12-22T14:01:33;2.73;;;2.47;;
3259;SDS011;68938;48.150;14.004;2023-12-22T14:04:01;2.37;;;2.27;;
3259;SDS011;68938;48.150;14.004;2023-12-22T14:06:28;2.43;;;2.30;;
3259;SDS011;68938;48.150;14.004;2023-12-22T14:08:56;2.40;;;2.30;;
3259;SDS011;68938;48.150;14.004;2023-12-22T14:11:23;1.90;;;1.80;;
3259;SDS011;68938;48.150;14.004;2023-12-22T14:13:50;5.70;;;3.90;;
3259;SDS011;68938;48.150;14.004;2023-12-22T14:16:17;2.80;;;2.60;;
3259;SDS011;68938;48.150;14.004;2023-12-22T14:18:44;1.80;;;1.80;;
3259;SDS011;68938;48.150;14.004;2023-12-22T14:21:11;3.63;;;1.90;;
3259;SDS011;68938;48.150;14.004;2023-12-22T14:23:37;2.30;;;2.20;;
3259;SDS011;68938;48.150;14.004;2023-12-22T14:26:04;2.73;;;2.53;;
3259;SDS011;68938;48.150;14.004;2023-12-22T14:28:31;2.10;;;2.00;;
3259;SDS011;68938;48.150;14.004;2023-12-22T14:30:59;1.43;;;1.40;;
3259;SDS011;68938;48.150;14.004;2023-12-22T14:33:25;2.33;;;2.23;;
3259;SDS011;68938;48.150;14.004;2023-12-22T14:35:52;1.80;;;1.80;;
3259;SDS011;68938;48.150;14.004;2023-12-22T14:38:19;2.13;;;2.03;;
3259;SDS011;68938;48.150;14.004;2023-12-22T14:40:46;2.13;;;1.93;;
3259;SDS011;68938;48.150;14.004;2023-12-22T14:43:13;2.27;;;2.17;;
3259;SDS011;68938;48.150;14.004;2023-12-22T14:45:40;2.40;;;2.30;;
3259;SDS011;68938;48.150;14.004;2023-12-22T14:48:07;3.33;;;2.67;;
3259;SDS011;68938;48.150;14.004;2023-12-22T14:50:34;2.97;;;2.53;;
3259;SDS011;68938;48.150;14.004;2023-12-22T14:53:01;3.90;;;3.70;;
3259;SDS011;68938;48.150;14.004;2023-12-22T14:55:28;10.53;;;6.57;;
3259;SDS011;68938;48.150;14.004;2023-12-22T14:57:55;7.30;;;5.90;;
3259;SDS011;68938;48.150;14.004;2023-12-22T15:00:21;4.33;;;3.70;;
3259;SDS011;68938;48.150;14.004;2023-12-22T15:02:48;8.67;;;5.20;;